Time;durP1;ratioP1;P1;durP2;ratioP2;P2;SDS_P1;SDS_P2;PMS_P1;PMS_P2;Temp;Humidity;BMP_temperature;BMP_pressure;BME280_temperature;BME280_humidity;BME280_pressure;Samples;Min_cycle;Max_cycle;Signal;HPM_P1;HPM_P2
2021/09/03 00:00:11;;;;;;;9.40;8.07;;;;;;;;;;5113181;28;20442;-66
2021/09/03 00:02:37;;;;;;;11.05;7.72;;;;;;;;;;5113853;28;20102;-66
2021/09/03 00:05:06;;;;;;;11.55;7.90;;;;;;;;;;5117029;28;20165;-65
2021/09/03 00:07:32;;;;;;;11.95;8.15;;;;;;;;;;5117145;28;20039;-66
2021/09/03 00:09:58;;;;;;;11.55;7.70;;;;;;;;;;5117272;28;20465;-64
2021/09/03 00:12:23;;;;;;;11.98;8.20;;;;;;;;;;5116938;28;20538;-65
2021/09/03 00:14:49;;;;;;;10.68;7.63;;;;;;;;;;5116980;28;20031;-60
2021/09/03 00:17:14;;;;;;;10.23;7.43;;;;;;;;;;5116809;28;20035;-59
2021/09/03 00:19:40;;;;;;;11.75;7.85;;;;;;;;;;5116496;28;20404;-59
2021/09/03 00:22:06;;;;;;;11.77;7.32;;;;;;;;;;5116869;28;20062;-59
2021/09/03 00:24:31;;;;;;;10.13;7.45;;;;;;;;;;5116780;28;20035;-59
2021/09/03 00:26:57;;;;;;;10.38;7.35;;;;;;;;;;5098330;28;20030;-59
2021/09/03 00:29:23;;;;;;;9.63;7.18;;;;;;;;;;5116532;28;20020;-60
2021/09/03 00:31:48;;;;;;;10.55;7.05;;;;;;;;;;5116550;28;20018;-59
2021/09/03 00:34:14;;;;;;;8.73;6.65;;;;;;;;;;5116521;28;20036;-59
2021/09/03 00:36:40;;;;;;;9.57;6.72;;;;;;;;;;5116308;28;20028;-59
2021/09/03 00:39:05;;;;;;;7.22;6.45;;;;;;;;;;5116394;28;20043;-59
2021/09/03 00:41:31;;;;;;;11.07;7.28;;;;;;;;;;5116364;28;20023;-59
2021/09/03 00:43:56;;;;;;;10.90;7.65;;;;;;;;;;5116483;28;20042;-59
2021/09/03 00:46:22;;;;;;;11.73;7.60;;;;;;;;;;5116226;28;20027;-60
2021/09/03 00:48:47;;;;;;;13.07;8.63;;;;;;;;;;5116189;28;20031;-59
2021/09/03 00:51:12;;;;;;;12.98;8.77;;;;;;;;;;5116397;28;20503;-60
2021/09/03 00:53:38;;;;;;;14.73;9.48;;;;;;;;;;5116493;28;20531;-59
2021/09/03 00:56:04;;;;;;;12.05;8.88;;;;;;;;;;5116000;28;20461;-59
2021/09/03 00:58:29;;;;;;;13.07;8.90;;;;;;;;;;5115934;28;20114;-67
2021/09/03 01:00:55;;;;;;;19.08;10.98;;;;;;;;;;5115984;28;20438;-67
2021/09/03 01:03:21;;;;;;;15.70;10.93;;;;;;;;;;5115920;28;20051;-66
2021/09/03 01:05:46;;;;;;;15.25;10.82;;;;;;;;;;5115877;28;20012;-67
2021/09/03 01:08:12;;;;;;;16.83;10.05;;;;;;;;;;5115834;28;20038;-66
2021/09/03 01:10:37;;;;;;;13.75;9.60;;;;;;;;;;5116172;28;20034;-66
2021/09/03 01:13:03;;;;;;;15.55;10.40;;;;;;;;;;5115858;28;20034;-66
2021/09/03 01:15:28;;;;;;;14.48;9.98;;;;;;;;;;5115458;28;20515;-59
2021/09/03 01:17:54;;;;;;;14.07;10.32;;;;;;;;;;5115906;28;20118;-59
2021/09/03 01:20:19;;;;;;;16.00;10.07;;;;;;;;;;5115621;28;20055;-65
2021/09/03 01:22:45;;;;;;;12.25;8.85;;;;;;;;;;5115836;28;20032;-64
2021/09/03 01:25:11;;;;;;;13.48;9.15;;;;;;;;;;5115521;28;20069;-65
2021/09/03 01:27:37;;;;;;;17.70;10.90;;;;;;;;;;5115693;28;20027;-65
2021/09/03 01:30:04;;;;;;;15.27;10.25;;;;;;;;;;5115587;28;20389;-66
2021/09/03 01:32:29;;;;;;;17.95;10.32;;;;;;;;;;5115461;28;20106;-66
2021/09/03 01:34:55;;;;;;;16.83;11.50;;;;;;;;;;5115958;28;20461;-66
2021/09/03 01:37:21;;;;;;;18.48;11.30;;;;;;;;;;5115392;28;20039;-65
2021/09/03 01:39:46;;;;;;;16.40;11.80;;;;;;;;;;5115360;28;20111;-66
2021/09/03 01:42:12;;;;;;;16.70;11.57;;;;;;;;;;5115300;28;20020;-66
2021/09/03 01:44:37;;;;;;;19.15;12.10;;;;;;;;;;5115144;28;20073;-64
2021/09/03 01:47:02;;;;;;;19.60;12.60;;;;;;;;;;5115108;28;20460;-64
2021/09/03 01:49:29;;;;;;;18.85;12.43;;;;;;;;;;5115091;28;20021;-64
2021/09/03 01:51:54;;;;;;;16.33;11.65;;;;;;;;;;5115182;28;20390;-64
2021/09/03 01:54:20;;;;;;;16.83;10.80;;;;;;;;;;5115095;28;20023;-65
2021/09/03 01:56:45;;;;;;;16.65;9.93;;;;;;;;;;5114994;28;20026;-65
2021/09/03 01:59:10;;;;;;;13.27;9.55;;;;;;;;;;5114932;28;20023;-65
2021/09/03 02:01:36;;;;;;;14.98;9.35;;;;;;;;;;5114923;28;20046;-64
2021/09/03 02:04:01;;;;;;;12.50;9.18;;;;;;;;;;5115027;28;20027;-65
2021/09/03 02:06:28;;;;;;;13.05;9.85;;;;;;;;;;5096635;28;20023;-65
2021/09/03 02:08:54;;;;;;;13.85;9.68;;;;;;;;;;5114870;28;20015;-65
2021/09/03 02:11:19;;;;;;;13.80;9.48;;;;;;;;;;5114788;28;20035;-65
2021/09/03 02:13:46;;;;;;;15.45;10.23;;;;;;;;;;5114919;28;20025;-63
2021/09/03 02:16:11;;;;;;;18.45;11.13;;;;;;;;;;5114862;28;20461;-64
2021/09/03 02:18:36;;;;;;;17.15;10.25;;;;;;;;;;5114531;28;20076;-65
2021/09/03 02:21:02;;;;;;;15.40;10.82;;;;;;;;;;5114660;28;20059;-64
2021/09/03 02:23:28;;;;;;;20.02;11.45;;;;;;;;;;5114791;28;20377;-65
2021/09/03 02:25:54;;;;;;;18.83;11.23;;;;;;;;;;5113548;28;20031;-64
2021/09/03 02:28:19;;;;;;;19.60;10.50;;;;;;;;;;5114351;28;20465;-65
2021/09/03 02:30:45;;;;;;;20.42;11.35;;;;;;;;;;5113942;28;20031;-64
2021/09/03 02:33:12;;;;;;;30.25;13.23;;;;;;;;;;5114480;28;20413;-65
2021/09/03 02:35:39;;;;;;;32.28;13.07;;;;;;;;;;5114380;28;20089;-63
2021/09/03 02:38:04;;;;;;;32.78;12.95;;;;;;;;;;5114237;28;20026;-65
2021/09/03 02:40:31;;;;;;;30.70;13.73;;;;;;;;;;5114187;28;20027;-65
2021/09/03 02:42:57;;;;;;;32.33;14.93;;;;;;;;;;5114164;28;20019;-65
2021/09/03 02:45:23;;;;;;;31.80;15.18;;;;;;;;;;5114223;28;20032;-65
2021/09/03 02:47:49;;;;;;;32.58;15.38;;;;;;;;;;5113990;28;20469;-65
2021/09/03 02:50:14;;;;;;;29.60;15.02;;;;;;;;;;5114132;28;20035;-65
2021/09/03 02:52:41;;;;;;;26.05;14.07;;;;;;;;;;5114036;28;20037;-64
2021/09/03 02:55:07;;;;;;;29.13;14.55;;;;;;;;;;5114371;28;20039;-65
2021/09/03 02:57:32;;;;;;;29.33;14.73;;;;;;;;;;5113941;28;20073;-65
2021/09/03 02:59:57;;;;;;;32.63;15.35;;;;;;;;;;5113985;28;20055;-65
2021/09/03 03:02:23;;;;;;;32.35;15.75;;;;;;;;;;5114219;28;20030;-59
2021/09/03 03:04:48;;;;;;;31.08;15.05;;;;;;;;;;5113817;28;20028;-59
2021/09/03 03:07:14;;;;;;;31.38;15.07;;;;;;;;;;5113785;28;20099;-59
2021/09/03 03:09:39;;;;;;;27.25;15.02;;;;;;;;;;5113680;28;20059;-59
2021/09/03 03:12:05;;;;;;;26.75;14.90;;;;;;;;;;5113686;28;20024;-60
2021/09/03 03:14:33;;;;;;;26.70;14.27;;;;;;;;;;5113622;28;20030;-59
2021/09/03 03:16:59;;;;;;;28.75;15.68;;;;;;;;;;5095607;28;20027;-59
2021/09/03 03:19:25;;;;;;;25.75;14.60;;;;;;;;;;5113510;28;20047;-59
2021/09/03 03:21:51;;;;;;;24.38;14.23;;;;;;;;;;5113644;28;20381;-59
2021/09/03 03:24:16;;;;;;;21.15;13.27;;;;;;;;;;5112989;28;20035;-59
2021/09/03 03:26:42;;;;;;;20.33;12.88;;;;;;;;;;5095355;28;20027;-59
2021/09/03 03:29:07;;;;;;;23.80;13.93;;;;;;;;;;5113676;28;20102;-59
2021/09/03 03:31:33;;;;;;;20.00;13.02;;;;;;;;;;5113535;28;20012;-59
2021/09/03 03:34:00;;;;;;;20.20;12.45;;;;;;;;;;5113904;28;20024;-59
2021/09/03 03:36:25;;;;;;;21.33;13.07;;;;;;;;;;5113901;28;20019;-59
2021/09/03 03:38:51;;;;;;;17.83;11.98;;;;;;;;;;5117753;28;20024;-59
2021/09/03 03:41:16;;;;;;;16.60;11.88;;;;;;;;;;5117866;28;20430;-59
2021/09/03 03:43:42;;;;;;;19.05;12.65;;;;;;;;;;5117965;28;20107;-59
2021/09/03 03:46:07;;;;;;;17.08;12.20;;;;;;;;;;5117472;28;20458;-59
2021/09/03 03:48:32;;;;;;;15.20;10.75;;;;;;;;;;5117671;28;20039;-59
2021/09/03 03:50:58;;;;;;;16.85;10.45;;;;;;;;;;5117552;28;20521;-59
2021/09/03 03:53:23;;;;;;;13.27;10.32;;;;;;;;;;5117714;28;20051;-59
2021/09/03 03:55:49;;;;;;;10.73;9.10;;;;;;;;;;5117626;28;20072;-59
2021/09/03 03:58:14;;;;;;;13.27;10.10;;;;;;;;;;5117522;28;20030;-59
2021/09/03 04:00:41;;;;;;;12.35;9.40;;;;;;;;;;5117667;28;20112;-59
2021/09/03 04:03:06;;;;;;;12.68;9.57;;;;;;;;;;5117385;28;20529;-59
2021/09/03 04:05:33;;;;;;;10.57;9.23;;;;;;;;;;5117324;28;20160;-59
2021/09/03 04:07:58;;;;;;;11.57;8.98;;;;;;;;;;5117530;28;20027;-59
2021/09/03 04:10:24;;;;;;;12.10;9.05;;;;;;;;;;5117269;28;20027;-59
2021/09/03 04:12:50;;;;;;;12.30;9.77;;;;;;;;;;5117032;28;20031;-59
2021/09/03 04:15:15;;;;;;;10.77;9.68;;;;;;;;;;5117076;28;20020;-59
2021/09/03 04:17:41;;;;;;;12.25;9.65;;;;;;;;;;5117263;28;20123;-59
2021/09/03 04:20:07;;;;;;;12.20;9.95;;;;;;;;;;5109489;28;20055;-59
2021/09/03 04:22:33;;;;;;;12.10;9.50;;;;;;;;;;5114734;28;20051;-59
2021/09/03 04:24:58;;;;;;;11.55;9.63;;;;;;;;;;5113929;28;20055;-59
2021/09/03 04:27:23;;;;;;;13.13;9.63;;;;;;;;;;5113794;28;20043;-59
2021/09/03 04:29:49;;;;;;;10.73;9.30;;;;;;;;;;5113463;28;20020;-59
2021/09/03 04:32:14;;;;;;;12.15;9.90;;;;;;;;;;5113876;28;20155;-59
2021/09/03 04:34:40;;;;;;;12.90;9.77;;;;;;;;;;5113763;28;20039;-59
2021/09/03 04:37:06;;;;;;;13.20;9.90;;;;;;;;;;5113615;28;20027;-59
2021/09/03 04:39:32;;;;;;;12.93;10.00;;;;;;;;;;5113729;28;20563;-58
2021/09/03 04:41:57;;;;;;;13.30;10.27;;;;;;;;;;5113999;28;20045;-59
2021/09/03 04:44:23;;;;;;;12.95;9.77;;;;;;;;;;5113836;28;20069;-59
2021/09/03 04:46:48;;;;;;;13.15;10.57;;;;;;;;;;5113623;28;20035;-59
2021/09/03 04:49:14;;;;;;;13.35;10.85;;;;;;;;;;5112626;28;20030;-59
2021/09/03 04:51:39;;;;;;;13.70;10.80;;;;;;;;;;5115115;28;20023;-59
2021/09/03 04:54:05;;;;;;;14.70;10.65;;;;;;;;;;5116415;28;20008;-59
2021/09/03 04:56:30;;;;;;;11.93;10.02;;;;;;;;;;5116100;28;20027;-59
2021/09/03 04:58:56;;;;;;;12.00;9.80;;;;;;;;;;5115955;28;20047;-59
2021/09/03 05:01:21;;;;;;;12.85;9.98;;;;;;;;;;5115827;28;20069;-59
2021/09/03 05:03:48;;;;;;;12.65;9.93;;;;;;;;;;5116227;28;20064;-58
2021/09/03 05:06:15;;;;;;;10.55;9.18;;;;;;;;;;5116352;28;20100;-63
2021/09/03 05:08:43;;;;;;;9.70;8.70;;;;;;;;;;5116225;28;20012;-63
2021/09/03 05:11:09;;;;;;;10.77;9.00;;;;;;;;;;5116095;28;20042;-63
2021/09/03 05:13:35;;;;;;;11.52;8.40;;;;;;;;;;5116112;28;20038;-64
2021/09/03 05:16:00;;;;;;;9.93;8.18;;;;;;;;;;5116378;28;20035;-63
2021/09/03 05:18:26;;;;;;;11.25;8.65;;;;;;;;;;5116115;28;20314;-63
2021/09/03 05:20:51;;;;;;;11.30;8.30;;;;;;;;;;5115900;28;20495;-63
2021/09/03 05:23:17;;;;;;;10.65;8.20;;;;;;;;;;5116052;28;20114;-63
2021/09/03 05:25:43;;;;;;;12.00;8.50;;;;;;;;;;5116441;28;20028;-63
2021/09/03 05:28:08;;;;;;;9.55;7.65;;;;;;;;;;5115571;28;20023;-63
2021/09/03 05:30:34;;;;;;;12.18;8.07;;;;;;;;;;5115816;28;20056;-63
2021/09/03 05:32:59;;;;;;;9.02;7.60;;;;;;;;;;5115967;28;20549;-63
2021/09/03 05:35:27;;;;;;;9.07;8.07;;;;;;;;;;5116050;28;20028;-64
2021/09/03 05:37:55;;;;;;;9.18;8.05;;;;;;;;;;5115684;28;20031;-64
2021/09/03 05:40:23;;;;;;;9.63;7.95;;;;;;;;;;5115554;28;20144;-64
2021/09/03 05:42:50;;;;;;;10.73;8.63;;;;;;;;;;5115708;28;20381;-64
2021/09/03 05:45:15;;;;;;;10.30;8.10;;;;;;;;;;5115779;28;20095;-63
2021/09/03 05:47:42;;;;;;;10.05;8.88;;;;;;;;;;5115395;28;20426;-63
2021/09/03 05:50:08;;;;;;;9.75;8.60;;;;;;;;;;5115895;28;20156;-64
2021/09/03 05:52:33;;;;;;;12.52;9.35;;;;;;;;;;5115245;28;20036;-63
2021/09/03 05:55:00;;;;;;;11.70;8.20;;;;;;;;;;5115212;28;20032;-63
2021/09/03 05:57:25;;;;;;;10.35;9.13;;;;;;;;;;5115657;28;20027;-65
2021/09/03 05:59:51;;;;;;;11.20;9.55;;;;;;;;;;5115251;28;20026;-65
2021/09/03 06:02:16;;;;;;;11.73;9.52;;;;;;;;;;5115181;28;20494;-64
2021/09/03 06:04:43;;;;;;;15.30;11.38;;;;;;;;;;5115199;28;20040;-63
2021/09/03 06:07:08;;;;;;;12.70;9.68;;;;;;;;;;5115738;28;20039;-63
2021/09/03 06:09:42;;;;;;;13.20;10.00;;;;;;;;;;5114397;28;20469;-63
2021/09/03 06:12:07;;;;;;;13.88;10.27;;;;;;;;;;5114958;28;20027;-63
2021/09/03 06:14:33;;;;;;;14.30;10.82;;;;;;;;;;5115097;28;20460;-65
2021/09/03 06:16:59;;;;;;;16.25;12.18;;;;;;;;;;5114997;28;20035;-63
2021/09/03 06:19:24;;;;;;;21.52;13.88;;;;;;;;;;5114412;28;20138;-65
2021/09/03 06:21:50;;;;;;;19.50;13.50;;;;;;;;;;5114377;28;20047;-63
2021/09/03 06:24:28;;;;;;;23.05;14.20;;;;;;;;;;5114337;28;20076;-65
2021/09/03 06:27:03;;;;;;;20.20;14.32;;;;;;;;;;5114207;28;20078;-64
2021/09/03 06:29:41;;;;;;;19.42;13.70;;;;;;;;;;5114196;28;20118;-59
2021/09/03 06:32:08;;;;;;;21.23;14.88;;;;;;;;;;5114632;28;20028;-59
2021/09/03 06:34:34;;;;;;;21.75;15.25;;;;;;;;;;5114704;28;20027;-59
2021/09/03 06:37:00;;;;;;;21.60;13.82;;;;;;;;;;5114490;28;20500;-59
2021/09/03 06:39:25;;;;;;;19.65;13.18;;;;;;;;;;5114747;28;20015;-59
2021/09/03 06:41:51;;;;;;;19.77;13.73;;;;;;;;;;5095966;28;20035;-59
2021/09/03 06:44:16;;;;;;;20.77;13.27;;;;;;;;;;5114259;28;20026;-59
2021/09/03 06:46:42;;;;;;;25.38;16.08;;;;;;;;;;5114208;28;20431;-59
2021/09/03 06:49:07;;;;;;;27.92;18.05;;;;;;;;;;5095284;28;20043;-59
2021/09/03 06:51:33;;;;;;;28.02;16.70;;;;;;;;;;5114149;28;20027;-59
2021/09/03 06:53:58;;;;;;;30.92;18.60;;;;;;;;;;5114491;28;20016;-59
2021/09/03 06:56:24;;;;;;;28.85;17.20;;;;;;;;;;5114333;28;20089;-59
2021/09/03 06:58:49;;;;;;;27.25;18.10;;;;;;;;;;5113925;28;20037;-59
2021/09/03 07:01:14;;;;;;;26.25;17.30;;;;;;;;;;5113958;28;20032;-59
2021/09/03 07:03:40;;;;;;;29.20;19.15;;;;;;;;;;5113739;28;20027;-59
2021/09/03 07:06:05;;;;;;;33.70;20.58;;;;;;;;;;5113701;28;20066;-59
2021/09/03 07:08:31;;;;;;;32.95;20.25;;;;;;;;;;5095541;28;20019;-59
2021/09/03 07:10:56;;;;;;;30.48;20.05;;;;;;;;;;5113610;28;20039;-59
2021/09/03 07:13:21;;;;;;;32.63;20.75;;;;;;;;;;5113350;28;20018;-59
2021/09/03 07:15:47;;;;;;;30.42;20.92;;;;;;;;;;5113648;28;20032;-59
2021/09/03 07:18:12;;;;;;;31.77;20.08;;;;;;;;;;5113752;28;20027;-59
2021/09/03 07:20:38;;;;;;;31.88;20.80;;;;;;;;;;5113548;28;20093;-59
2021/09/03 07:23:03;;;;;;;33.75;21.17;;;;;;;;;;5113600;28;20035;-59
2021/09/03 07:25:29;;;;;;;31.02;19.88;;;;;;;;;;5113428;28;20024;-59
2021/09/03 07:27:54;;;;;;;37.22;22.25;;;;;;;;;;5113462;28;20012;-59
2021/09/03 07:30:20;;;;;;;30.00;21.02;;;;;;;;;;5113449;28;20492;-59
2021/09/03 07:32:47;;;;;;;33.17;22.27;;;;;;;;;;5113582;28;20029;-59
2021/09/03 07:35:12;;;;;;;27.27;20.00;;;;;;;;;;5113648;28;20027;-59
2021/09/03 07:37:41;;;;;;;28.52;18.80;;;;;;;;;;5113419;28;20027;-58
2021/09/03 07:40:07;;;;;;;25.02;17.35;;;;;;;;;;5113508;28;20028;-59
2021/09/03 07:42:33;;;;;;;25.52;16.98;;;;;;;;;;5113329;28;20027;-59
2021/09/03 07:44:59;;;;;;;25.00;17.65;;;;;;;;;;5113248;28;20032;-59
2021/09/03 07:47:24;;;;;;;28.42;19.88;;;;;;;;;;5113364;28;20027;-59
2021/09/03 07:49:50;;;;;;;27.63;19.13;;;;;;;;;;5113324;28;20040;-59
2021/09/03 07:52:15;;;;;;;24.08;17.48;;;;;;;;;;5113347;28;20062;-59
2021/09/03 07:54:40;;;;;;;23.27;16.00;;;;;;;;;;5113264;28;20051;-59
2021/09/03 07:57:06;;;;;;;24.90;16.30;;;;;;;;;;5113035;28;20043;-59
2021/09/03 07:59:31;;;;;;;27.58;17.38;;;;;;;;;;5113305;28;20053;-60
2021/09/03 08:01:57;;;;;;;19.08;14.23;;;;;;;;;;5113341;28;20020;-59
2021/09/03 08:04:22;;;;;;;22.42;14.02;;;;;;;;;;5095093;28;20058;-59
2021/09/03 08:06:48;;;;;;;22.45;14.18;;;;;;;;;;5113364;28;20019;-59
2021/09/03 08:09:13;;;;;;;22.40;13.90;;;;;;;;;;5113283;28;20040;-59
2021/09/03 08:11:38;;;;;;;18.92;12.32;;;;;;;;;;5113183;28;20031;-59
2021/09/03 08:14:04;;;;;;;21.80;12.48;;;;;;;;;;5113115;28;20111;-59
2021/09/03 08:16:29;;;;;;;18.92;13.40;;;;;;;;;;5113163;28;20035;-59
2021/09/03 08:18:55;;;;;;;21.73;12.43;;;;;;;;;;5112569;28;20043;-60
2021/09/03 08:21:20;;;;;;;18.58;12.20;;;;;;;;;;5113319;28;20045;-59
2021/09/03 08:23:46;;;;;;;18.38;11.80;;;;;;;;;;5113792;28;20089;-59
2021/09/03 08:26:11;;;;;;;20.23;12.23;;;;;;;;;;5116714;28;20030;-59
2021/09/03 08:28:37;;;;;;;18.80;11.70;;;;;;;;;;5116694;28;20026;-59
2021/09/03 08:31:02;;;;;;;20.17;11.55;;;;;;;;;;5116646;28;20489;-59
2021/09/03 08:33:27;;;;;;;20.25;12.25;;;;;;;;;;5116521;28;20488;-59
2021/09/03 08:35:53;;;;;;;21.90;12.57;;;;;;;;;;5116661;28;20019;-59
2021/09/03 08:38:18;;;;;;;22.25;11.75;;;;;;;;;;5116438;28;20036;-59
2021/09/03 08:40:44;;;;;;;24.83;12.35;;;;;;;;;;5116437;28;20106;-59
2021/09/03 08:43:09;;;;;;;19.90;12.25;;;;;;;;;;5116484;28;20031;-59
2021/09/03 08:45:35;;;;;;;24.70;12.68;;;;;;;;;;5098172;28;20019;-59
2021/09/03 08:48:01;;;;;;;21.35;12.23;;;;;;;;;;5116366;28;20076;-59
2021/09/03 08:50:27;;;;;;;19.48;10.20;;;;;;;;;;5116251;28;20102;-59
2021/09/03 08:52:53;;;;;;;20.17;9.90;;;;;;;;;;5116099;28;20477;-59
2021/09/03 08:55:18;;;;;;;15.65;8.10;;;;;;;;;;5098000;28;20492;-59
2021/09/03 08:57:44;;;;;;;15.20;10.57;;;;;;;;;;5116171;28;20506;-59
2021/09/03 09:00:22;;;;;;;19.90;9.93;;;;;;;;;;5116052;28;20023;-59
2021/09/03 09:02:55;;;;;;;14.30;9.25;;;;;;;;;;5115993;28;20038;-59
2021/09/03 09:05:21;;;;;;;17.98;10.55;;;;;;;;;;5115902;28;20027;-59
2021/09/03 09:07:46;;;;;;;16.65;9.70;;;;;;;;;;5115816;28;20098;-59
2021/09/03 09:10:12;;;;;;;17.60;9.02;;;;;;;;;;5115840;28;20073;-59
2021/09/03 09:12:44;;;;;;;11.02;6.97;;;;;;;;;;5115782;28;20485;-59
2021/09/03 09:15:10;;;;;;;10.32;5.97;;;;;;;;;;5115678;28;20036;-59
2021/09/03 09:17:39;;;;;;;7.18;5.40;;;;;;;;;;5115725;28;20028;-59
2021/09/03 09:20:06;;;;;;;9.68;6.25;;;;;;;;;;5115523;28;20575;-59
2021/09/03 09:22:52;;;;;;;10.75;6.72;;;;;;;;;;5115682;28;20027;-59
2021/09/03 09:25:22;;;;;;;9.63;5.63;;;;;;;;;;5115540;28;20080;-59
2021/09/03 09:27:48;;;;;;;8.20;5.43;;;;;;;;;;5115544;28;20050;-59
2021/09/03 09:30:24;;;;;;;9.15;5.43;;;;;;;;;;5115451;28;20474;-59
2021/09/03 09:33:08;;;;;;;8.80;4.60;;;;;;;;;;5115461;28;20469;-59
2021/09/03 09:35:40;;;;;;;7.43;4.75;;;;;;;;;;5115060;28;20092;-59
2021/09/03 09:38:07;;;;;;;6.63;4.65;;;;;;;;;;5115409;28;20469;-59
2021/09/03 09:40:41;;;;;;;5.28;4.20;;;;;;;;;;5115266;28;20055;-59
2021/09/03 09:43:22;;;;;;;6.82;4.72;;;;;;;;;;5115246;28;20031;-59
2021/09/03 09:46:08;;;;;;;6.65;4.47;;;;;;;;;;5115118;28;20115;-59
2021/09/03 09:48:34;;;;;;;6.07;4.30;;;;;;;;;;5115874;28;20024;-59
2021/09/03 09:50:59;;;;;;;7.03;4.90;;;;;;;;;;5115137;28;20423;-59
2021/09/03 09:53:27;;;;;;;5.30;4.80;;;;;;;;;;5115103;28;20023;-59
2021/09/03 09:55:52;;;;;;;6.70;4.57;;;;;;;;;;5115149;28;20058;-59
2021/09/03 09:58:23;;;;;;;6.30;4.30;;;;;;;;;;5115080;28;20028;-59
2021/09/03 10:00:49;;;;;;;6.55;3.90;;;;;;;;;;5115122;28;20023;-59
2021/09/03 10:03:17;;;;;;;4.05;3.50;;;;;;;;;;5114980;28;20031;-58
2021/09/03 10:05:44;;;;;;;6.63;4.90;;;;;;;;;;5114794;28;20036;-59
2021/09/03 10:08:09;;;;;;;7.25;4.47;;;;;;;;;;5114695;28;20020;-59
2021/09/03 10:10:35;;;;;;;6.15;4.22;;;;;;;;;;5114715;28;20032;-59
2021/09/03 10:13:00;;;;;;;4.28;3.83;;;;;;;;;;5114679;28;20384;-59
2021/09/03 10:15:26;;;;;;;4.88;4.38;;;;;;;;;;5114655;28;20488;-59
2021/09/03 10:17:52;;;;;;;5.82;4.80;;;;;;;;;;5114516;28;20423;-59
2021/09/03 10:20:18;;;;;;;6.05;4.70;;;;;;;;;;5114498;28;20052;-59
2021/09/03 10:22:44;;;;;;;5.50;4.28;;;;;;;;;;5114494;28;20032;-59
2021/09/03 10:25:10;;;;;;;5.45;4.30;;;;;;;;;;5114390;28;20078;-58
2021/09/03 10:27:36;;;;;;;5.32;3.95;;;;;;;;;;5114448;28;20414;-59
2021/09/03 10:30:19;;;;;;;6.45;4.65;;;;;;;;;;5114474;28;20031;-59
2021/09/03 10:32:45;;;;;;;4.57;4.18;;;;;;;;;;5114379;28;20050;-59
2021/09/03 10:35:15;;;;;;;5.10;4.28;;;;;;;;;;5114479;28;20030;-59
2021/09/03 10:37:41;;;;;;;;;;;;;;;;;;5114582;28;20089;-59
2021/09/03 10:40:41;;;;;;;4.17;3.77;;;;;;;;;;5114257;28;19904;-59
2021/09/03 10:43:07;;;;;;;6.47;4.28;;;;;;;;;;5011508;28;20289;-59
2021/09/03 10:45:40;;;;;;;9.52;5.00;;;;;;;;;;5092605;28;20512;-59
2021/09/03 10:48:17;;;;;;;4.47;4.07;;;;;;;;;;5113567;28;20024;-59
2021/09/03 10:50:51;;;;;;;4.93;3.85;;;;;;;;;;5114072;28;20115;-59
2021/09/03 10:53:18;;;;;;;4.43;4.03;;;;;;;;;;5114063;28;20111;-59
2021/09/03 10:56:02;;;;;;;5.05;4.10;;;;;;;;;;5114056;28;20028;-59
2021/09/03 10:58:28;;;;;;;5.22;4.15;;;;;;;;;;5113945;28;20039;-58
2021/09/03 11:01:13;;;;;;;4.60;4.20;;;;;;;;;;5113962;28;20020;-59
2021/09/03 11:03:52;;;;;;;4.07;3.72;;;;;;;;;;5113632;28;20119;-59
2021/09/03 11:06:23;;;;;;;4.78;4.43;;;;;;;;;;5113942;28;20074;-59
2021/09/03 11:08:57;;;;;;;4.80;3.97;;;;;;;;;;5095472;28;20051;-59
2021/09/03 11:11:33;;;;;;;4.93;4.50;;;;;;;;;;5113719;28;20031;-59
2021/09/03 11:14:03;;;;;;;5.28;4.30;;;;;;;;;;5113879;28;20034;-59
2021/09/03 11:16:40;;;;;;;4.47;4.07;;;;;;;;;;5113742;28;20058;-59
2021/09/03 11:19:10;;;;;;;5.07;4.20;;;;;;;;;;5113139;28;20561;-59
2021/09/03 11:21:40;;;;;;;4.38;3.97;;;;;;;;;;5113681;28;20036;-59
2021/09/03 11:24:06;;;;;;;4.07;3.70;;;;;;;;;;5113728;28;20049;-59
2021/09/03 11:26:34;;;;;;;4.00;3.63;;;;;;;;;;5113534;28;20030;-59
2021/09/03 11:29:02;;;;;;;4.45;3.92;;;;;;;;;;5113571;28;20020;-59
2021/09/03 11:31:27;;;;;;;4.75;4.00;;;;;;;;;;5113590;28;20018;-59
2021/09/03 11:33:53;;;;;;;8.20;4.53;;;;;;;;;;5113536;28;20110;-59
2021/09/03 11:36:18;;;;;;;5.18;4.10;;;;;;;;;;5113314;28;20035;-59
2021/09/03 11:38:51;;;;;;;6.45;3.88;;;;;;;;;;5095140;28;20477;-59
2021/09/03 11:41:16;;;;;;;4.40;3.88;;;;;;;;;;5113536;28;20027;-59
2021/09/03 11:43:42;;;;;;;8.38;4.72;;;;;;;;;;5113376;28;20393;-59
2021/09/03 11:46:15;;;;;;;4.90;3.80;;;;;;;;;;5113274;28;20386;-59
2021/09/03 11:48:41;;;;;;;4.18;3.88;;;;;;;;;;5095304;28;20542;-59
2021/09/03 11:51:06;;;;;;;4.15;3.85;;;;;;;;;;5113550;28;20020;-59
2021/09/03 11:53:33;;;;;;;3.78;3.47;;;;;;;;;;5113450;28;20019;-58
2021/09/03 11:55:59;;;;;;;4.93;4.22;;;;;;;;;;5113339;28;20020;-59
2021/09/03 11:58:25;;;;;;;4.32;3.92;;;;;;;;;;5115107;28;20032;-59
2021/09/03 12:00:52;;;;;;;6.45;3.75;;;;;;;;;;5117167;28;20038;-59
2021/09/03 12:03:21;;;;;;;6.05;4.30;;;;;;;;;;5117364;28;20028;-59
2021/09/03 12:05:47;;;;;;;5.20;4.30;;;;;;;;;;5117084;28;20024;-59
2021/09/03 12:08:13;;;;;;;4.93;4.18;;;;;;;;;;5117007;28;20096;-59
2021/09/03 12:10:43;;;;;;;4.75;4.30;;;;;;;;;;5117172;28;20122;-59
2021/09/03 12:13:16;;;;;;;5.88;4.07;;;;;;;;;;5117049;28;20380;-59
2021/09/03 12:15:42;;;;;;;6.10;4.07;;;;;;;;;;5116938;28;20043;-59
2021/09/03 12:18:20;;;;;;;4.40;4.00;;;;;;;;;;5116834;28;20023;-59
2021/09/03 12:20:50;;;;;;;4.55;3.83;;;;;;;;;;5116945;28;20039;-59
2021/09/03 12:23:15;;;;;;;4.78;4.32;;;;;;;;;;5116972;28;20043;-58
2021/09/03 12:25:41;;;;;;;6.07;4.18;;;;;;;;;;5116654;28;20024;-59
2021/09/03 12:28:13;;;;;;;4.40;3.97;;;;;;;;;;5116761;28;20176;-59
2021/09/03 12:30:39;;;;;;;5.03;4.00;;;;;;;;;;5116634;28;20080;-59
2021/09/03 12:33:21;;;;;;;4.43;4.03;;;;;;;;;;5116636;28;20102;-59
2021/09/03 12:35:48;;;;;;;4.82;4.35;;;;;;;;;;5116585;28;20122;-59
2021/09/03 12:38:13;;;;;;;5.10;4.65;;;;;;;;;;5116355;28;20031;-60
2021/09/03 12:40:38;;;;;;;7.47;3.70;;;;;;;;;;5116499;28;20032;-59
2021/09/03 12:43:11;;;;;;;4.60;4.18;;;;;;;;;;5116431;28;20023;-59
2021/09/03 12:45:44;;;;;;;4.47;4.07;;;;;;;;;;5116478;28;20038;-59
2021/09/03 12:48:09;;;;;;;4.38;3.90;;;;;;;;;;5116440;28;20099;-59
2021/09/03 12:50:35;;;;;;;4.85;4.32;;;;;;;;;;5098125;28;20502;-59
2021/09/03 12:53:00;;;;;;;4.60;4.13;;;;;;;;;;5116341;28;20040;-59
2021/09/03 12:55:26;;;;;;;5.80;4.95;;;;;;;;;;5116351;28;20055;-59
2021/09/03 12:57:51;;;;;;;4.53;4.10;;;;;;;;;;5116271;28;20140;-58
2021/09/03 13:00:17;;;;;;;5.45;4.20;;;;;;;;;;5116335;28;20094;-59
2021/09/03 13:02:42;;;;;;;5.43;4.00;;;;;;;;;;5115992;28;20389;-59
2021/09/03 13:05:09;;;;;;;4.68;4.28;;;;;;;;;;5115824;28;20019;-59
2021/09/03 13:07:34;;;;;;;4.40;4.00;;;;;;;;;;5097547;28;20383;-59
2021/09/03 13:09:59;;;;;;;5.00;4.47;;;;;;;;;;5115230;28;20028;-59
2021/09/03 13:12:25;;;;;;;5.22;4.35;;;;;;;;;;5115909;28;20466;-59
2021/09/03 13:14:50;;;;;;;5.68;4.07;;;;;;;;;;5115923;28;20030;-59
2021/09/03 13:17:16;;;;;;;5.40;4.22;;;;;;;;;;5115834;28;20035;-59
2021/09/03 13:19:42;;;;;;;5.05;4.40;;;;;;;;;;5115438;28;20035;-59
2021/09/03 13:22:07;;;;;;;7.40;4.47;;;;;;;;;;5115778;28;20470;-59
2021/09/03 13:24:33;;;;;;;4.18;3.67;;;;;;;;;;5115408;28;20080;-58
2021/09/03 13:26:58;;;;;;;4.80;4.35;;;;;;;;;;5115678;28;20024;-59
2021/09/03 13:29:24;;;;;;;7.18;4.07;;;;;;;;;;5115541;28;20479;-59
2021/09/03 13:31:49;;;;;;;4.60;3.97;;;;;;;;;;5115494;28;20106;-59
2021/09/03 13:34:14;;;;;;;5.28;4.43;;;;;;;;;;5115591;28;20022;-59
2021/09/03 13:36:40;;;;;;;5.60;4.55;;;;;;;;;;5097246;28;20092;-59
2021/09/03 13:39:05;;;;;;;4.85;4.45;;;;;;;;;;5115417;28;20103;-59
2021/09/03 13:41:31;;;;;;;5.53;4.72;;;;;;;;;;5115420;28;20031;-58
2021/09/03 13:43:57;;;;;;;5.28;4.78;;;;;;;;;;5115315;28;20011;-59
2021/09/03 13:46:23;;;;;;;4.70;4.05;;;;;;;;;;5115165;28;20042;-58
2021/09/03 13:48:49;;;;;;;3.50;3.20;;;;;;;;;;5115223;28;20106;-59
2021/09/03 13:51:15;;;;;;;3.92;3.63;;;;;;;;;;5096979;28;20054;-59
2021/09/03 13:53:41;;;;;;;4.22;3.83;;;;;;;;;;5115165;28;20019;-59
2021/09/03 13:56:06;;;;;;;4.18;3.88;;;;;;;;;;5115286;28;20027;-59
2021/09/03 13:58:32;;;;;;;3.92;3.60;;;;;;;;;;5114890;28;20065;-59
2021/09/03 14:00:57;;;;;;;4.03;3.63;;;;;;;;;;5114997;28;20027;-59
2021/09/03 14:03:23;;;;;;;4.65;3.50;;;;;;;;;;5114813;28;20088;-59
2021/09/03 14:05:48;;;;;;;4.22;3.42;;;;;;;;;;5114635;28;20088;-59
2021/09/03 14:08:14;;;;;;;4.55;3.70;;;;;;;;;;5114815;28;20019;-59
2021/09/03 14:10:39;;;;;;;5.72;4.25;;;;;;;;;;5114565;28;20024;-58
2021/09/03 14:13:05;;;;;;;8.38;3.67;;;;;;;;;;5114725;28;20066;-59
2021/09/03 14:15:30;;;;;;;4.18;3.80;;;;;;;;;;5114480;28;20032;-59
2021/09/03 14:17:56;;;;;;;3.90;3.53;;;;;;;;;;5114712;28;20031;-59
2021/09/03 14:20:23;;;;;;;4.68;3.97;;;;;;;;;;5114380;28;20043;-59
2021/09/03 14:22:49;;;;;;;3.95;3.55;;;;;;;;;;5113656;28;20031;-59
2021/09/03 14:25:16;;;;;;;4.38;3.65;;;;;;;;;;5114501;28;20036;-59
2021/09/03 14:27:41;;;;;;;4.25;3.70;;;;;;;;;;5114524;28;20453;-59